createdAt,value
2022-07-26T00:03:45.731Z,24.29
2022-07-26T00:08:48.006Z,24.14
2022-07-26T00:13:49.534Z,24.10
2022-07-26T00:18:50.870Z,24.05
2022-07-26T00:23:52.593Z,24.00
2022-07-26T00:28:53.994Z,23.92
2022-07-26T00:33:55.304Z,23.87
2022-07-26T00:38:56.641Z,23.88
2022-07-26T00:43:59.748Z,23.88
2022-07-26T00:49:01.120Z,23.85
2022-07-26T00:54:04.825Z,23.89
2022-07-26T00:59:06.664Z,23.88
2022-07-26T01:04:08.637Z,23.88
2022-07-26T01:09:11.750Z,23.95
2022-07-26T01:14:13.320Z,23.96
2022-07-26T01:19:14.925Z,23.98
2022-07-26T01:24:16.546Z,23.98
2022-07-26T01:29:18.080Z,23.80
2022-07-26T01:34:19.860Z,23.75
2022-07-26T01:39:21.252Z,23.78
2022-07-26T01:44:23.718Z,23.72
2022-07-26T01:49:25.167Z,23.67
2022-07-26T01:54:26.630Z,23.67
2022-07-26T01:59:27.978Z,23.67
2022-07-26T02:04:47.874Z,23.63
2022-07-26T02:09:49.203Z,23.62
2022-07-26T02:14:50.783Z,23.54
2022-07-26T02:19:52.334Z,23.55
2022-07-26T02:24:53.731Z,23.32
2022-07-26T02:29:55.084Z,23.26
2022-07-26T02:34:56.362Z,23.23
2022-07-26T02:39:57.947Z,23.17
2022-07-26T02:44:59.504Z,23.23
2022-07-26T02:50:00.790Z,23.25
2022-07-26T02:55:02.096Z,23.36
2022-07-26T03:00:04.638Z,23.32
2022-07-26T03:05:06.882Z,23.27
2022-07-26T03:10:08.837Z,23.32
2022-07-26T03:15:11.279Z,23.27
2022-07-26T03:20:12.809Z,23.28
2022-07-26T03:25:14.410Z,23.17
2022-07-26T03:30:15.828Z,23.10
2022-07-26T03:35:17.570Z,23.10
2022-07-26T03:40:20.153Z,23.11
2022-07-26T03:45:21.598Z,23.08
2022-07-26T03:50:23.291Z,23.01
2022-07-26T03:55:47.879Z,22.93
2022-07-26T04:00:49.351Z,22.83
2022-07-26T04:05:50.704Z,22.74
2022-07-26T04:10:54.439Z,22.84
2022-07-26T04:15:55.796Z,22.65
2022-07-26T04:20:57.434Z,22.79
2022-07-26T04:25:58.820Z,22.79
2022-07-26T04:31:00.843Z,22.69
2022-07-26T04:36:02.338Z,22.71
2022-07-26T04:41:03.902Z,22.67
2022-07-26T04:46:20.490Z,22.18
2022-07-26T04:51:21.843Z,22.27
2022-07-26T04:56:23.205Z,22.36
2022-07-26T05:01:24.542Z,22.34
2022-07-26T05:06:25.943Z,22.39
2022-07-26T05:11:27.326Z,22.57
2022-07-26T05:16:28.907Z,22.56
2022-07-26T05:21:30.650Z,22.56
2022-07-26T05:26:32.193Z,22.54
2022-07-26T05:31:33.520Z,22.60
2022-07-26T05:36:35.233Z,22.62
2022-07-26T05:46:38.335Z,22.67
2022-07-26T05:51:39.742Z,22.64
2022-07-26T05:56:41.050Z,22.13
2022-07-26T06:01:42.397Z,22.23
2022-07-26T06:06:43.776Z,22.23
2022-07-26T06:11:45.271Z,22.36
2022-07-26T06:16:47.277Z,22.49
2022-07-26T06:21:48.804Z,22.80
2022-07-26T06:26:56.748Z,22.93
2022-07-26T06:31:58.434Z,22.80
2022-07-26T06:36:59.969Z,22.71
2022-07-26T06:42:01.417Z,22.67
2022-07-26T06:47:02.942Z,22.86
2022-07-26T06:52:04.681Z,22.88
2022-07-26T06:57:06.171Z,22.95
2022-07-26T07:02:07.561Z,23.01
2022-07-26T07:07:09.163Z,23.08
2022-07-26T07:12:10.911Z,23.37
2022-07-26T07:17:16.024Z,23.50
2022-07-26T07:22:21.339Z,23.61
2022-07-26T07:27:22.753Z,23.85
2022-07-26T07:32:24.678Z,23.44
2022-07-26T07:37:26.345Z,23.74
2022-07-26T07:42:27.713Z,23.81
2022-07-26T07:47:29.342Z,23.58
2022-07-26T07:52:30.737Z,24.12
2022-07-26T07:57:32.715Z,24.31
2022-07-26T08:02:34.092Z,24.23
2022-07-26T08:07:36.399Z,24.62
2022-07-26T08:12:37.826Z,24.86
2022-07-26T08:17:41.798Z,24.59
2022-07-26T08:22:43.611Z,23.92
2022-07-26T08:27:55.038Z,24.49
2022-07-26T08:33:04.249Z,24.89
2022-07-26T08:38:05.658Z,24.67
2022-07-26T08:43:08.746Z,24.52
2022-07-26T08:48:18.675Z,24.98
2022-07-26T08:53:20.802Z,25.40
2022-07-26T08:58:22.295Z,25.48
2022-07-26T09:03:26.147Z,25.60
2022-07-26T09:08:29.666Z,25.71
2022-07-26T09:13:53.548Z,25.41
2022-07-26T09:18:56.293Z,26.15
2022-07-26T09:23:58.593Z,26.16
2022-07-26T09:29:09.634Z,26.07
2022-07-26T09:34:11.496Z,25.95
2022-07-26T09:39:13.158Z,26.02
2022-07-26T09:44:24.071Z,26.24
2022-07-26T09:49:30.965Z,26.05
2022-07-26T09:54:45.847Z,26.17
2022-07-26T09:59:48.019Z,26.25
2022-07-26T10:04:49.444Z,26.15
2022-07-26T10:10:01.512Z,26.66
2022-07-26T10:15:03.134Z,26.40
2022-07-26T10:20:09.324Z,26.43
2022-07-26T10:25:19.972Z,26.29
2022-07-26T10:30:27.662Z,25.83
2022-07-26T10:35:44.703Z,25.58
2022-07-26T10:40:56.892Z,26.07
2022-07-26T10:46:16.877Z,26.62
2022-07-26T10:51:31.551Z,27.34
2022-07-26T10:56:33.929Z,28.74
2022-07-26T11:01:37.748Z,29.62
2022-07-26T11:06:40.230Z,29.89
2022-07-26T11:11:47.166Z,28.36
2022-07-26T11:16:50.339Z,28.30
2022-07-26T11:21:59.844Z,29.33
2022-07-26T11:27:04.417Z,29.97
2022-07-26T11:32:17.450Z,30.26
2022-07-26T11:37:19.602Z,29.66
2022-07-26T11:42:22.134Z,29.27
2022-07-26T11:47:25.517Z,28.76
2022-07-26T11:52:31.618Z,28.59
2022-07-26T11:57:33.336Z,27.70
2022-07-26T12:02:34.917Z,27.39
2022-07-26T12:07:36.518Z,27.24
2022-07-26T12:12:39.393Z,27.27
2022-07-26T12:17:58.136Z,27.65
2022-07-26T12:23:04.955Z,28.47
2022-07-26T12:28:07.577Z,29.38
2022-07-26T12:33:08.961Z,29.94
2022-07-26T12:38:10.378Z,29.86
2022-07-26T12:43:12.236Z,29.94
2022-07-26T12:48:14.051Z,29.57
2022-07-26T12:53:15.431Z,29.68
2022-07-26T12:58:16.806Z,29.74
2022-07-26T13:03:18.174Z,30.12
2022-07-26T13:08:19.644Z,29.68
2022-07-26T13:13:20.997Z,29.87
2022-07-26T13:18:22.619Z,30.50
2022-07-26T13:23:26.038Z,30.06
2022-07-26T13:28:28.362Z,29.52
2022-07-26T13:33:29.815Z,29.46
2022-07-26T13:38:33.548Z,29.19
2022-07-26T13:43:35.406Z,29.46
2022-07-26T13:48:36.786Z,29.22
2022-07-26T13:53:55.045Z,29.38
2022-07-26T13:58:57.078Z,29.24
2022-07-26T14:03:58.624Z,28.74
2022-07-26T14:09:00.468Z,28.67
2022-07-26T14:14:02.105Z,28.89
2022-07-26T14:19:03.899Z,29.21
2022-07-26T14:24:05.647Z,29.39
2022-07-26T14:29:07.255Z,29.30
2022-07-26T14:34:09.083Z,29.27
2022-07-26T14:39:10.668Z,29.53
2022-07-26T14:44:12.369Z,29.40
2022-07-26T14:49:14.309Z,29.49
2022-07-26T14:54:16.312Z,29.55
2022-07-26T14:59:17.811Z,29.08
2022-07-26T15:04:19.279Z,29.02
2022-07-26T15:09:20.724Z,28.35
2022-07-26T15:14:22.089Z,28.30
2022-07-26T15:19:25.692Z,28.40
2022-07-26T15:24:28.624Z,28.31
2022-07-26T15:29:30.085Z,28.52
2022-07-26T15:34:32.479Z,27.99
2022-07-26T15:39:33.960Z,27.82
2022-07-26T15:44:37.993Z,27.95
2022-07-26T15:49:40.240Z,27.79
2022-07-26T15:54:42.422Z,27.74
2022-07-26T15:59:44.004Z,27.67
2022-07-26T16:04:45.361Z,27.86
2022-07-26T16:09:46.694Z,27.89
2022-07-26T16:14:48.635Z,27.98
2022-07-26T16:19:50.394Z,27.84
2022-07-26T16:24:51.795Z,27.68
2022-07-26T16:29:53.207Z,27.73
2022-07-26T16:34:54.565Z,27.80
2022-07-26T16:39:56.000Z,27.72
2022-07-26T16:44:57.386Z,27.78
2022-07-26T16:49:58.789Z,27.82
2022-07-26T16:55:00.423Z,27.78
2022-07-26T17:00:01.914Z,27.59
2022-07-26T17:05:04.686Z,27.70
2022-07-26T17:10:08.403Z,27.49
2022-07-26T17:15:11.004Z,27.31
2022-07-26T17:20:12.433Z,27.11
2022-07-26T17:25:13.821Z,26.98
2022-07-26T17:30:15.258Z,26.91
2022-07-26T17:35:16.627Z,26.85
2022-07-26T17:40:17.998Z,26.83
2022-07-26T17:45:19.835Z,26.79
2022-07-26T17:50:38.203Z,26.74
2022-07-26T17:55:40.048Z,26.58
2022-07-26T18:00:41.580Z,26.40
2022-07-26T18:05:43.363Z,26.13
2022-07-26T18:10:50.579Z,26.04
2022-07-26T18:15:52.655Z,25.90
2022-07-26T18:20:54.672Z,25.74
2022-07-26T18:25:57.939Z,25.64
2022-07-26T18:30:59.395Z,25.53
2022-07-26T18:36:01.511Z,25.53
2022-07-26T18:41:03.099Z,25.42
2022-07-26T18:46:06.312Z,25.24
2022-07-26T18:51:07.904Z,25.13
2022-07-26T18:56:09.267Z,25.11
2022-07-26T19:01:10.736Z,25.01
2022-07-26T19:06:13.054Z,24.94
2022-07-26T19:11:14.435Z,24.90
2022-07-26T19:16:15.923Z,24.89
2022-07-26T19:21:17.454Z,24.92
2022-07-26T19:26:18.967Z,24.91
2022-07-26T19:31:21.364Z,24.84
2022-07-26T19:36:26.055Z,24.83
2022-07-26T19:41:27.852Z,24.73
2022-07-26T19:46:29.474Z,24.64
2022-07-26T19:51:31.057Z,24.54
2022-07-26T19:56:32.461Z,24.49
2022-07-26T20:01:33.999Z,24.58
2022-07-26T20:06:35.469Z,24.56
2022-07-26T20:11:36.891Z,24.50
2022-07-26T20:16:38.310Z,24.40
2022-07-26T20:21:39.833Z,24.37
2022-07-26T20:26:41.229Z,24.33
2022-07-26T20:31:42.988Z,24.22
2022-07-26T20:36:44.422Z,24.14
2022-07-26T20:41:45.904Z,24.08
2022-07-26T20:46:47.409Z,24.08
2022-07-26T20:51:48.772Z,24.02
2022-07-26T20:56:50.184Z,24.00
2022-07-26T21:01:51.654Z,23.87
2022-07-26T21:06:53.079Z,23.81
2022-07-26T21:11:54.844Z,23.71
2022-07-26T21:16:56.274Z,23.79
2022-07-26T21:21:57.865Z,23.77
2022-07-26T21:26:59.201Z,23.76
2022-07-26T21:32:00.690Z,23.69
2022-07-26T21:37:04.334Z,23.79
2022-07-26T21:42:05.964Z,23.65
2022-07-26T21:47:07.404Z,23.33
2022-07-26T21:52:08.815Z,23.46
2022-07-26T21:57:10.253Z,23.48
2022-07-26T22:02:11.801Z,23.34
2022-07-26T22:07:13.313Z,23.39
2022-07-26T22:12:14.677Z,23.32
2022-07-26T22:17:16.016Z,23.19
2022-07-26T22:22:17.414Z,23.16
2022-07-26T22:27:18.796Z,23.01
2022-07-26T22:32:20.201Z,22.97
2022-07-26T22:37:21.527Z,22.86
2022-07-26T22:42:22.888Z,22.84
2022-07-26T22:47:24.385Z,22.82
2022-07-26T22:52:25.733Z,22.73
2022-07-26T22:57:27.245Z,22.64
2022-07-26T23:02:32.039Z,22.67
2022-07-26T23:07:33.761Z,22.74
2022-07-26T23:12:35.517Z,22.66
2022-07-26T23:17:37.613Z,22.63
2022-07-26T23:22:41.716Z,22.51
2022-07-26T23:27:43.142Z,22.45
2022-07-26T23:32:44.528Z,22.36
2022-07-26T23:37:45.900Z,22.31
2022-07-26T23:42:48.204Z,22.24
2022-07-26T23:47:49.650Z,22.22
2022-07-26T23:52:51.100Z,22.21
2022-07-26T23:57:52.461Z,22.16
